Terminal Aerodrome Forecast
Issued by NWS

Home | Current Version | Previous Version | Text Only | Print | Product List | Glossary On
Versions: 1 2 3 4 5 6 7 8 9 10 11 12 13 14
000
FTAK31 PAJN 192300
TAFAGY
TAF
PAGY 192337Z 2000/2024 04010G18KT P6SM SCT035 OVC050
     FM200300 04015G25KT P6SM OVC070
     FM200900 04018G30KT P6SM OVC060
     FM201600 04018G30KT P6SM VCSH OVC060
      AMD LTD TO CLD VIS AND WIND=

USA.gov is the U.S. government's official web portal to all federal, state and local government web resources and services.